createdAt,value
2022-08-19T00:02:00.827Z,100052.09
2022-08-19T00:04:34.309Z,100056.91
2022-08-19T00:07:02.482Z,100051.41
2022-08-19T00:09:31.370Z,100069.78
2022-08-19T00:12:01.484Z,100060.09
2022-08-19T00:14:33.041Z,100064.41
2022-08-19T00:17:02.798Z,100057.03
2022-08-19T00:19:31.923Z,100060.34
2022-08-19T00:22:00.312Z,100056.22
2022-08-19T00:24:29.843Z,100048.72
2022-08-19T00:27:24.975Z,100060.88
2022-08-19T00:29:52.867Z,100061.72
2022-08-19T00:32:21.916Z,100058.78
2022-08-19T00:34:49.998Z,100059.59
2022-08-19T00:37:19.728Z,100056.84
2022-08-19T00:39:49.237Z,100058.50
2022-08-19T00:42:17.393Z,100053.22
2022-08-19T00:44:46.032Z,100050.06
2022-08-19T00:47:14.330Z,100073.97
2022-08-19T00:49:58.747Z,100055.31
2022-08-19T00:52:31.551Z,100065.25
2022-08-19T00:55:01.040Z,100055.84
2022-08-19T00:57:37.422Z,100055.56
2022-08-19T01:00:13.921Z,100039.25
2022-08-19T01:02:43.783Z,100052.94
2022-08-19T01:05:16.983Z,100050.00
2022-08-19T01:07:49.699Z,100054.97
2022-08-19T01:10:23.147Z,100046.09
2022-08-19T01:12:52.746Z,100041.50
2022-08-19T01:15:26.545Z,100040.38
2022-08-19T01:17:58.203Z,100047.00
2022-08-19T01:20:26.768Z,100053.09
2022-08-19T01:22:58.724Z,100042.41
2022-08-19T01:25:45.045Z,100039.78
2022-08-19T01:28:39.930Z,100035.88
2022-08-19T01:31:27.293Z,100047.91
2022-08-19T01:33:58.876Z,100052.19
2022-08-19T01:36:32.873Z,100040.69
2022-08-19T01:39:02.371Z,100034.75
2022-08-19T01:41:30.389Z,100055.34
2022-08-19T01:44:09.985Z,100056.19
2022-08-19T01:46:49.455Z,100050.81
2022-08-19T01:49:23.722Z,100043.84
2022-08-19T01:51:52.063Z,100046.22
2022-08-19T01:54:27.519Z,100038.16
2022-08-19T01:57:04.887Z,100056.44
2022-08-19T01:59:34.550Z,100049.22
2022-08-19T02:02:02.831Z,100042.47
2022-08-19T02:04:31.963Z,100048.09
2022-08-19T02:07:00.272Z,100053.34
2022-08-19T02:09:28.318Z,100052.38
2022-08-19T02:11:56.584Z,100040.19
2022-08-19T02:14:29.429Z,100036.22
2022-08-19T02:16:57.576Z,100050.41
2022-08-19T02:19:26.681Z,100044.34
2022-08-19T02:21:54.676Z,100055.22
2022-08-19T02:24:22.724Z,100053.28
2022-08-19T02:26:51.781Z,100053.13
2022-08-19T02:29:20.043Z,100049.34
2022-08-19T02:31:48.282Z,100041.97
2022-08-19T02:34:19.057Z,100054.00
2022-08-19T02:36:51.980Z,100058.44
2022-08-19T02:39:20.627Z,100052.34
2022-08-19T02:41:50.205Z,100050.25
2022-08-19T02:44:30.589Z,100049.97
2022-08-19T02:47:02.125Z,100049.97
2022-08-19T02:49:30.130Z,100058.41
2022-08-19T02:52:03.387Z,100055.09
2022-08-19T02:54:31.454Z,100052.97
2022-08-19T02:57:00.197Z,100053.50
2022-08-19T02:59:32.179Z,100054.16
2022-08-19T03:02:00.218Z,100055.00
2022-08-19T03:04:28.330Z,100054.53
2022-08-19T03:06:59.567Z,100056.06
2022-08-19T03:09:31.693Z,100053.13
2022-08-19T03:11:59.625Z,100044.09
2022-08-19T03:14:28.062Z,100042.13
2022-08-19T03:16:57.797Z,100057.78
2022-08-19T03:19:25.983Z,100053.19
2022-08-19T03:21:55.424Z,100052.19
2022-08-19T03:24:23.521Z,100032.94
2022-08-19T03:27:00.331Z,100050.75
2022-08-19T03:29:33.767Z,100052.41
2022-08-19T03:32:19.855Z,100057.53
2022-08-19T03:35:00.956Z,100035.56
2022-08-19T03:37:29.199Z,100050.75
2022-08-19T03:39:57.377Z,100053.91
2022-08-19T03:42:38.187Z,100057.06
2022-08-19T03:45:17.134Z,100057.41
2022-08-19T03:47:47.113Z,100055.44
2022-08-19T03:50:14.831Z,100056.78
2022-08-19T03:52:45.520Z,100059.25
2022-08-19T03:55:18.011Z,100051.38
2022-08-19T03:57:47.492Z,100052.84
2022-08-19T04:00:16.050Z,100058.97
2022-08-19T04:02:58.299Z,100049.25
2022-08-19T04:05:30.527Z,100051.25
2022-08-19T04:08:00.677Z,100054.94
2022-08-19T04:10:29.850Z,100065.84
2022-08-19T04:13:20.808Z,100057.47
2022-08-19T04:15:48.950Z,100056.31
2022-08-19T04:18:18.225Z,100055.16
2022-08-19T04:20:48.257Z,100057.34
2022-08-19T04:23:16.825Z,100055.88
2022-08-19T04:25:45.856Z,100054.56
2022-08-19T04:28:16.210Z,100029.31
2022-08-19T04:30:47.640Z,100054.44
2022-08-19T04:33:19.870Z,100052.16
2022-08-19T04:35:56.158Z,100051.69
2022-08-19T04:38:24.302Z,100047.91
2022-08-19T04:41:11.919Z,100041.50
2022-08-19T04:43:40.920Z,100050.06
2022-08-19T04:46:37.542Z,100046.44
2022-08-19T04:49:10.399Z,100051.56
2022-08-19T04:51:45.477Z,100045.63
2022-08-19T04:54:15.175Z,100050.38
2022-08-19T04:56:55.650Z,100055.50
2022-08-19T04:59:24.258Z,100038.19
2022-08-19T05:01:52.484Z,100050.72
2022-08-19T05:04:22.937Z,100042.81
2022-08-19T05:06:52.367Z,100040.19
2022-08-19T05:09:27.551Z,100053.53
2022-08-19T05:11:56.244Z,100053.69
2022-08-19T05:14:24.811Z,100056.66
2022-08-19T05:17:23.750Z,100061.94
2022-08-19T05:20:02.445Z,100060.78
2022-08-19T05:22:35.603Z,100049.25
2022-08-19T05:25:13.146Z,100055.91
2022-08-19T05:27:45.154Z,100054.59
2022-08-19T05:30:14.245Z,100054.13
2022-08-19T05:32:43.963Z,100061.38
2022-08-19T05:35:13.656Z,100057.44
2022-08-19T05:37:42.215Z,100055.94
2022-08-19T05:40:11.733Z,100055.28
2022-08-19T05:42:42.123Z,100059.22
2022-08-19T05:45:10.645Z,100029.97
2022-08-19T05:47:38.901Z,100053.94
2022-08-19T05:50:10.775Z,100065.00
2022-08-19T05:52:57.691Z,100057.91
2022-08-19T05:55:26.860Z,100055.94
2022-08-19T05:57:54.901Z,100055.75
2022-08-19T06:00:24.781Z,100044.22
2022-08-19T06:02:53.816Z,100051.66
2022-08-19T06:05:22.242Z,100060.88
2022-08-19T06:07:50.586Z,100037.97
2022-08-19T06:10:18.891Z,100053.50
2022-08-19T06:12:47.125Z,100050.88
2022-08-19T06:15:16.118Z,100054.16
2022-08-19T06:17:46.293Z,100050.53
2022-08-19T06:20:16.913Z,100046.91
2022-08-19T06:22:50.764Z,100048.03
2022-08-19T06:25:20.107Z,100058.41
2022-08-19T06:28:11.866Z,100063.72
2022-08-19T06:30:39.846Z,100060.72
2022-08-19T06:33:07.837Z,100056.91
2022-08-19T06:35:42.176Z,100049.97
2022-08-19T06:38:11.939Z,100045.88
2022-08-19T06:40:40.098Z,100046.50
2022-08-19T06:43:09.350Z,100056.28
2022-08-19T06:45:40.502Z,100054.78
2022-08-19T06:48:09.127Z,100060.25
2022-08-19T06:50:39.866Z,100058.91
2022-08-19T06:53:11.858Z,100059.06
2022-08-19T06:55:41.994Z,100056.78
2022-08-19T06:58:10.897Z,100056.59
2022-08-19T07:00:40.977Z,100049.50
2022-08-19T07:03:09.455Z,100060.38
2022-08-19T07:05:45.455Z,100031.50
2022-08-19T07:08:16.184Z,100054.09
2022-08-19T07:10:47.884Z,100045.84
2022-08-19T07:13:15.960Z,100063.66
2022-08-19T07:15:46.232Z,100058.50
2022-08-19T07:18:14.416Z,100048.72
2022-08-19T07:20:44.592Z,100040.22
2022-08-19T07:23:16.114Z,100024.66
2022-08-19T07:25:52.843Z,100056.53
2022-08-19T07:28:23.897Z,100053.19
2022-08-19T07:30:53.553Z,100052.00
2022-08-19T07:33:22.459Z,100062.53
2022-08-19T07:35:51.573Z,100061.84
2022-08-19T07:38:20.726Z,100060.38
2022-08-19T07:40:48.788Z,100068.13
2022-08-19T07:43:17.387Z,100055.59
2022-08-19T07:45:49.936Z,100058.31
2022-08-19T07:48:17.979Z,100064.63
2022-08-19T07:50:46.067Z,100064.47
2022-08-19T07:53:14.211Z,100063.69
2022-08-19T07:55:43.816Z,100077.44
2022-08-19T07:58:14.158Z,100077.13
2022-08-19T08:00:43.622Z,100070.72
2022-08-19T08:03:16.544Z,100076.22
2022-08-19T08:06:03.711Z,100070.44
2022-08-19T08:08:50.388Z,100076.41
2022-08-19T08:11:24.694Z,100087.50
2022-08-19T08:14:00.420Z,100092.25
2022-08-19T08:16:34.700Z,100095.75
2022-08-19T08:19:03.055Z,100101.69
2022-08-19T08:21:36.211Z,100095.13
2022-08-19T08:24:06.132Z,100099.59
2022-08-19T08:26:57.452Z,100091.97
2022-08-19T08:29:47.206Z,100077.94
2022-08-19T08:32:16.535Z,100093.28
2022-08-19T08:34:44.859Z,100083.56
2022-08-19T08:37:16.161Z,100092.31
2022-08-19T08:39:44.606Z,100084.88
2022-08-19T08:42:26.161Z,100102.88
2022-08-19T08:45:02.902Z,100090.00
2022-08-19T08:47:41.960Z,100102.03
2022-08-19T08:50:21.317Z,100093.94
2022-08-19T08:52:52.990Z,100109.97
2022-08-19T08:55:26.358Z,100105.50
2022-08-19T08:58:09.189Z,100116.06
2022-08-19T09:00:44.377Z,100117.06
2022-08-19T09:03:21.647Z,100110.47
2022-08-19T09:06:11.942Z,100114.41
2022-08-19T09:09:15.655Z,100109.63
2022-08-19T09:12:26.791Z,100117.69
2022-08-19T09:15:14.185Z,100116.53
2022-08-19T09:17:42.241Z,100121.13
2022-08-19T09:20:21.363Z,100117.31
2022-08-19T09:22:52.628Z,100114.16
2022-08-19T09:25:24.612Z,100114.47
2022-08-19T09:28:02.502Z,100110.50
2022-08-19T09:30:36.208Z,100110.47
2022-08-19T09:33:04.561Z,100122.38
2022-08-19T09:35:32.876Z,100110.63
2022-08-19T09:38:18.513Z,100101.09
2022-08-19T09:40:46.730Z,100108.53
2022-08-19T09:43:14.784Z,100100.13
2022-08-19T09:45:43.796Z,100105.59
2022-08-19T09:48:11.955Z,100102.47
2022-08-19T09:50:51.473Z,100107.41
2022-08-19T09:53:25.481Z,100105.16
2022-08-19T09:55:57.268Z,100106.09
2022-08-19T09:58:29.215Z,100105.47
2022-08-19T10:01:00.272Z,100105.31
2022-08-19T10:03:30.517Z,100113.91
2022-08-19T10:06:01.061Z,100116.53
2022-08-19T10:08:36.276Z,100117.53
2022-08-19T10:11:27.540Z,100120.66
2022-08-19T10:13:54.628Z,100113.69
2022-08-19T10:16:28.569Z,100130.84
2022-08-19T10:18:59.066Z,100122.28
2022-08-19T10:21:32.369Z,100129.72
2022-08-19T10:24:05.538Z,100111.22
2022-08-19T10:26:38.676Z,100121.00
2022-08-19T10:29:09.187Z,100132.22
2022-08-19T10:31:58.805Z,100139.31
2022-08-19T10:34:29.164Z,100124.59
2022-08-19T10:37:01.061Z,100132.22
2022-08-19T10:39:41.162Z,100136.50
2022-08-19T10:42:13.529Z,100134.69
2022-08-19T10:44:43.016Z,100139.16
2022-08-19T10:47:18.015Z,100131.75
2022-08-19T10:50:15.528Z,100136.03
2022-08-19T10:52:50.222Z,100131.91
2022-08-19T10:55:42.463Z,100117.22
2022-08-19T10:58:16.932Z,100131.09
2022-08-19T11:00:45.255Z,100123.84
2022-08-19T11:03:13.962Z,100126.47
2022-08-19T11:05:46.767Z,100138.38
2022-08-19T11:08:22.825Z,100121.34
2022-08-19T11:10:59.878Z,100126.00
2022-08-19T11:13:30.320Z,100132.63
2022-08-19T11:16:07.739Z,100127.81
2022-08-19T11:18:39.099Z,100111.31
2022-08-19T11:21:26.405Z,100133.44
2022-08-19T11:23:57.805Z,100129.47
2022-08-19T11:26:27.318Z,100131.97
2022-08-19T11:28:56.884Z,100127.81
2022-08-19T11:31:29.112Z,100137.25
2022-08-19T11:34:05.149Z,100131.78
2022-08-19T11:36:36.696Z,100132.78
2022-08-19T11:39:08.148Z,100140.53
2022-08-19T11:41:37.775Z,100139.56
2022-08-19T11:44:06.467Z,100129.63
2022-08-19T11:46:34.534Z,100140.53
2022-08-19T11:49:05.257Z,100143.19
2022-08-19T11:51:35.478Z,100140.38
2022-08-19T11:54:05.862Z,100136.41
2022-08-19T11:56:34.327Z,100127.81
2022-08-19T11:59:03.122Z,100138.72
2022-08-19T12:01:31.582Z,100145.81
2022-08-19T12:04:00.502Z,100150.28
2022-08-19T12:06:33.216Z,100144.66
2022-08-19T12:09:06.105Z,100147.47
2022-08-19T12:11:35.602Z,100147.47
2022-08-19T12:14:04.050Z,100144.00
2022-08-19T12:16:34.625Z,100146.31
2022-08-19T12:19:06.823Z,100154.09
2022-08-19T12:21:37.133Z,100155.72
2022-08-19T12:24:07.774Z,100156.88
2022-08-19T12:26:53.039Z,100162.34
2022-08-19T12:29:24.165Z,100149.97
2022-08-19T12:31:53.164Z,100156.72
2022-08-19T12:34:21.851Z,100168.13
2022-08-19T12:36:51.952Z,100158.72
2022-08-19T12:39:19.953Z,100164.00
2022-08-19T12:41:53.989Z,100164.31
2022-08-19T12:44:28.926Z,100166.59
2022-08-19T12:46:58.967Z,100178.50
2022-08-19T12:49:52.689Z,100168.06
2022-08-19T12:52:19.885Z,100182.94
2022-08-19T12:54:54.678Z,100175.84
2022-08-19T12:57:31.952Z,100182.94
2022-08-19T13:00:15.156Z,100178.63
2022-08-19T13:02:47.402Z,100179.63
2022-08-19T13:05:21.597Z,100190.34
2022-08-19T13:07:50.354Z,100180.44
2022-08-19T13:10:21.664Z,100188.38
2022-08-19T13:12:52.211Z,100199.59
2022-08-19T13:15:23.949Z,100201.09
2022-08-19T13:17:58.049Z,100182.94
2022-08-19T13:20:26.953Z,100190.19
2022-08-19T13:22:56.021Z,100199.13
2022-08-19T13:25:25.425Z,100193.00
2022-08-19T13:27:53.684Z,100204.72
2022-08-19T13:30:44.834Z,100207.53
2022-08-19T13:33:13.000Z,100205.03
2022-08-19T13:35:49.169Z,100211.81
2022-08-19T13:38:22.988Z,100215.59
2022-08-19T13:40:54.121Z,100220.22
2022-08-19T13:43:25.383Z,100217.91
2022-08-19T13:45:57.801Z,100218.91
2022-08-19T13:48:28.303Z,100225.50
2022-08-19T13:50:56.884Z,100211.63
2022-08-19T13:53:25.129Z,100229.78
2022-08-19T13:55:56.361Z,100221.34
2022-08-19T13:58:24.577Z,100233.91
2022-08-19T14:00:52.808Z,100223.97
2022-08-19T14:03:21.110Z,100222.63
2022-08-19T14:05:51.154Z,100220.31
2022-08-19T14:08:19.908Z,100237.16
2022-08-19T14:10:49.934Z,100231.31
2022-08-19T14:13:23.800Z,100234.13
2022-08-19T14:15:52.636Z,100236.09
2022-08-19T14:18:21.327Z,100232.94
2022-08-19T14:20:49.573Z,100238.06
2022-08-19T14:23:17.909Z,100244.50
2022-08-19T14:25:46.049Z,100240.00
2022-08-19T14:28:14.237Z,100237.53
2022-08-19T14:30:42.297Z,100245.75
2022-08-19T14:33:10.397Z,100243.59
2022-08-19T14:35:39.345Z,100246.38
2022-08-19T14:38:16.990Z,100250.47
2022-08-19T14:43:33.465Z,100257.34
2022-08-19T14:46:02.610Z,100253.50
2022-08-19T14:48:51.659Z,100259.09
2022-08-19T14:51:23.587Z,100262.31
2022-08-19T14:53:52.506Z,100256.16
2022-08-19T14:56:23.942Z,100259.94
2022-08-19T14:58:53.701Z,100263.03
2022-08-19T15:01:24.300Z,100268.16
2022-08-19T15:03:57.440Z,100266.50
2022-08-19T15:06:26.534Z,100270.13
2022-08-19T15:08:58.563Z,100272.41
2022-08-19T15:11:32.865Z,100275.66
2022-08-19T15:14:02.937Z,100268.34
2022-08-19T15:16:31.159Z,100274.00
2022-08-19T15:19:01.512Z,100276.47
2022-08-19T15:21:31.297Z,100275.66
2022-08-19T15:24:00.698Z,100279.78
2022-08-19T15:26:36.885Z,100273.53
2022-08-19T15:29:06.257Z,100278.81
2022-08-19T15:31:38.117Z,100279.63
2022-08-19T15:34:07.779Z,100251.09
2022-08-19T15:36:38.713Z,100267.59
2022-08-19T15:39:07.981Z,100267.44
2022-08-19T15:41:37.908Z,100271.03
2022-08-19T15:44:10.965Z,100278.81
2022-08-19T15:46:41.600Z,100273.69
2022-08-19T15:49:12.216Z,100263.28
2022-08-19T15:51:43.671Z,100271.34
2022-08-19T15:54:17.368Z,100267.06
2022-08-19T15:57:03.690Z,100269.69
2022-08-19T15:59:51.054Z,100276.94
2022-08-19T16:02:39.869Z,100290.25
2022-08-19T16:05:37.190Z,100280.84
2022-08-19T16:08:05.786Z,100279.50
2022-08-19T16:10:33.901Z,100282.59
2022-08-19T16:13:05.139Z,100265.28
2022-08-19T16:15:34.455Z,100278.00
2022-08-19T16:18:04.766Z,100275.22
2022-08-19T16:20:33.234Z,100272.56
2022-08-19T16:23:05.598Z,100277.84
2022-08-19T16:25:33.601Z,100278.16
2022-08-19T16:28:07.828Z,100285.38
2022-08-19T16:30:39.678Z,100283.00
2022-08-19T16:33:09.133Z,100282.03
2022-08-19T16:36:01.809Z,100285.66
2022-08-19T16:38:35.574Z,100287.47
2022-08-19T16:41:03.602Z,100284.28
2022-08-19T16:43:32.995Z,100303.56
2022-08-19T16:46:02.234Z,100298.59
2022-08-19T16:48:31.632Z,100285.34
2022-08-19T16:51:01.332Z,100288.38
2022-08-19T16:53:32.487Z,100290.16
2022-08-19T16:56:00.750Z,100282.41
2022-08-19T16:58:32.191Z,100300.03
2022-08-19T17:01:03.937Z,100297.56
2022-08-19T17:03:35.974Z,100288.59
2022-08-19T17:06:18.263Z,100289.41
2022-08-19T17:08:55.062Z,100295.00
2022-08-19T17:11:26.083Z,100304.41
2022-08-19T17:13:56.136Z,100289.19
2022-08-19T17:16:26.892Z,100296.78
2022-08-19T17:18:57.023Z,100300.41
2022-08-19T17:24:20.356Z,100295.72
2022-08-19T17:26:48.375Z,100294.91
2022-08-19T17:29:20.294Z,100282.47
2022-08-19T17:31:48.277Z,100295.88
2022-08-19T17:34:17.722Z,100296.47
2022-08-19T17:36:45.739Z,100296.25
2022-08-19T17:39:15.232Z,100302.22
2022-08-19T17:41:44.988Z,100295.88
2022-08-19T17:44:12.911Z,100299.34
2022-08-19T17:46:40.896Z,100301.97
2022-08-19T17:49:10.075Z,100269.19
2022-08-19T17:51:41.957Z,100294.06
2022-08-19T17:54:14.396Z,100287.31
2022-08-19T17:56:43.346Z,100289.09
2022-08-19T17:59:14.112Z,100295.34
2022-08-19T18:01:53.661Z,100294.66
2022-08-19T18:04:26.411Z,100301.44
2022-08-19T18:06:55.929Z,100302.41
2022-08-19T18:09:41.380Z,100303.41
2022-08-19T18:12:12.850Z,100305.19
2022-08-19T18:14:43.873Z,100292.31
2022-08-19T18:17:23.660Z,100297.72
2022-08-19T18:19:51.760Z,100302.03
2022-08-19T18:22:33.577Z,100295.94
2022-08-19T18:25:03.723Z,100294.25
2022-08-19T18:27:31.966Z,100290.41
2022-08-19T18:30:00.209Z,100301.75
2022-08-19T18:32:34.790Z,100301.31
2022-08-19T18:35:06.598Z,100305.75
2022-08-19T18:37:34.564Z,100303.41
2022-08-19T18:40:43.276Z,100316.56
2022-08-19T18:43:14.546Z,100305.94
2022-08-19T18:46:03.083Z,100317.69
2022-08-19T18:48:50.288Z,100291.16
2022-08-19T18:51:20.240Z,100317.84
2022-08-19T18:53:49.119Z,100308.28
2022-08-19T18:56:20.383Z,100313.16
2022-08-19T18:58:52.509Z,100315.09
2022-08-19T19:01:26.985Z,100311.09
2022-08-19T19:03:56.636Z,100311.94
2022-08-19T19:06:30.422Z,100318.03
2022-08-19T19:08:59.002Z,100318.84
2022-08-19T19:11:34.535Z,100323.44
2022-08-19T19:14:04.210Z,100320.25
2022-08-19T19:16:33.315Z,100336.06
2022-08-19T19:19:01.571Z,100318.88
2022-08-19T19:21:34.069Z,100333.72
2022-08-19T19:24:03.335Z,100310.03
2022-08-19T19:26:31.670Z,100328.16
2022-08-19T19:29:00.456Z,100331.75
2022-08-19T19:31:28.542Z,100341.59
2022-08-19T19:33:57.570Z,100340.09
2022-08-19T19:36:25.599Z,100343.00
2022-08-19T19:38:53.979Z,100336.09
2022-08-19T19:41:28.949Z,100343.00
2022-08-19T19:44:29.296Z,100340.22
2022-08-19T19:46:51.289Z,100344.66
2022-08-19T19:49:19.358Z,100338.56
2022-08-19T19:51:47.415Z,100339.00
2022-08-19T19:54:15.643Z,100346.06
2022-08-19T19:56:45.947Z,100329.88
2022-08-19T19:59:14.034Z,100336.22
2022-08-19T20:01:46.869Z,100345.50
2022-08-19T20:04:17.293Z,100347.00
2022-08-19T20:06:46.945Z,100343.53
2022-08-19T20:09:20.022Z,100338.13
2022-08-19T20:11:56.565Z,100342.56
2022-08-19T20:14:37.892Z,100341.75
2022-08-19T20:17:06.446Z,100337.31
2022-08-19T20:19:37.585Z,100340.22
2022-08-19T20:22:10.072Z,100342.16
2022-08-19T20:24:40.011Z,100343.44
2022-08-19T20:27:08.021Z,100342.75
2022-08-19T20:29:41.437Z,100342.88
2022-08-19T20:32:11.300Z,100340.00
2022-08-19T20:34:41.291Z,100346.63
2022-08-19T20:37:13.230Z,100344.69
2022-08-19T20:39:41.397Z,100360.47
2022-08-19T20:42:09.360Z,100352.72
2022-08-19T20:44:40.176Z,100358.94
2022-08-19T20:47:08.529Z,100350.50
2022-08-19T20:49:37.332Z,100356.19
2022-08-19T20:52:07.144Z,100358.97
2022-08-19T20:54:35.630Z,100357.56
2022-08-19T20:57:04.371Z,100347.19
2022-08-19T20:59:32.482Z,100363.81
2022-08-19T21:02:00.553Z,100366.44
2022-08-19T21:04:28.556Z,100365.88
2022-08-19T21:06:59.806Z,100376.53
2022-08-19T21:09:27.884Z,100340.56
2022-08-19T21:11:56.224Z,100375.41
2022-08-19T21:14:24.527Z,100363.09
2022-08-19T21:16:52.621Z,100369.88
2022-08-19T21:19:23.910Z,100368.22
2022-08-19T21:21:55.073Z,100373.75
2022-08-19T21:24:26.363Z,100373.75
2022-08-19T21:26:58.533Z,100365.19
2022-08-19T21:29:26.549Z,100360.50
2022-08-19T21:31:54.598Z,100366.44
2022-08-19T21:34:24.407Z,100375.84
2022-08-19T21:36:52.477Z,100373.91
2022-08-19T21:39:20.642Z,100371.13
2022-08-19T21:41:50.559Z,100379.16
2022-08-19T21:44:18.348Z,100379.03
2022-08-19T21:46:50.386Z,100376.41
2022-08-19T21:49:19.981Z,100365.47
2022-08-19T21:51:47.957Z,100379.03
2022-08-19T21:54:16.089Z,100386.22
2022-08-19T21:56:44.373Z,100380.97
2022-08-19T21:59:12.380Z,100374.88
2022-08-19T22:01:42.780Z,100383.44
2022-08-19T22:04:14.087Z,100382.34
2022-08-19T22:06:42.118Z,100378.19
2022-08-19T22:09:14.306Z,100384.97
2022-08-19T22:11:44.113Z,100376.69
2022-08-19T22:14:12.205Z,100384.00
2022-08-19T22:16:40.312Z,100391.06
2022-08-19T22:19:10.530Z,100395.50
2022-08-19T22:21:40.722Z,100400.22
2022-08-19T22:24:11.521Z,100398.53
2022-08-19T22:26:39.818Z,100393.97
2022-08-19T22:29:08.164Z,100391.06
2022-08-19T22:31:38.246Z,100397.28
2022-08-19T22:34:08.923Z,100382.75
2022-08-19T22:36:37.192Z,100393.00
2022-08-19T22:39:05.895Z,100398.13
2022-08-19T22:41:35.321Z,100399.78
2022-08-19T22:44:04.487Z,100393.84
2022-08-19T22:46:34.533Z,100395.34
2022-08-19T22:49:02.882Z,100415.44
2022-08-19T22:51:49.939Z,100397.16
2022-08-19T22:54:18.743Z,100409.19
2022-08-19T22:56:46.922Z,100413.63
2022-08-19T22:59:15.074Z,100418.34
2022-08-19T23:01:44.948Z,100425.41
2022-08-19T23:04:13.428Z,100422.78
2022-08-19T23:06:42.384Z,100429.84
2022-08-19T23:09:16.736Z,100439.53
2022-08-19T23:11:45.629Z,100423.59
2022-08-19T23:14:14.978Z,100432.88
2022-08-19T23:16:43.920Z,100439.13
2022-08-19T23:19:14.108Z,100447.13
2022-08-19T23:21:44.085Z,100444.50
2022-08-19T23:24:12.801Z,100444.50
2022-08-19T23:27:01.353Z,100445.91
2022-08-19T23:29:48.523Z,100449.34
2022-08-19T23:32:19.231Z,100430.94
2022-08-19T23:34:48.029Z,100448.53
2022-08-19T23:37:16.565Z,100451.56
2022-08-19T23:39:45.328Z,100456.81
2022-08-19T23:42:14.136Z,100456.81
2022-08-19T23:44:51.406Z,100460.44
2022-08-19T23:47:21.457Z,100466.66
2022-08-19T23:49:49.973Z,100471.34
2022-08-19T23:52:18.039Z,100470.53
2022-08-19T23:54:46.210Z,100464.84
2022-08-19T23:57:14.793Z,100470.94
2022-08-19T23:59:45.913Z,100472.56
